Algoma, WV

9:40 AM EDT on July 23, 2014 (GMT -0400)
Parkview Heights (KVABLUEF4) Elev 2402 ft | 37.24 °N, 81.28 °W | Change Station

Current weather conditions updated 2 seconds ago

Rain
Rain
74.6 °F
Feels Like 74 °F
N
3.0
Wind Variable Wind from SSW
Gusts 5.0 mph

Today is forecast to be nearly the same temperature as yesterday. Times of sun and clouds.

Today
High -- | Low -- °F
--% Chance of Precip.
Yesterday
High -- | Low -- °F
Precip. -- in
6:22 AM 8:41 PM
Waning Crescent, 10% visible
Pressure 30.08 in
Visibility 10.0 miles
Clouds Clear
Heat Index 74 °F
Dew Point 69 °F
Humidity 84%
Rainfall 0.00 in
Snow Depth Not available.
UV 1.9 out of 12
Pollen 4.60 out of 12
Air Quality Not available.
Flu Activity Not available.
METAR KBLF 231252Z AUTO 26006KT 10SM CLR 23/18 A3020 RMK AO2 SLP186 T02280183

More Conditions Fewer Conditions

Pressure 30.08 in
Visibility 10.0 miles
Clouds Clear
Heat Index 74 °F
Dew Point 69 °F
Humidity 84%
Rainfall 0.00 in
Snow Depth Not available.
UV 1.9 out of 12
Pollen 4.60 out of 12
Air Quality Not available.
Flu Activity Not available.
METAR KBLF 231252Z AUTO 26006KT 10SM CLR 23/18 A3020 RMK AO2 SLP186 T02280183

More Conditions Fewer Conditions

10-Day Weather Forecast

Almanac

Astronomy

Jul. 23, 2014 Rise Set
Actual Time 6:22 AM EDT 8:41 PM EDT
Civil Twilight 5:53 AM EDT 9:10 PM EDT
Nautical Twilight 5:16 AM EDT 9:47 PM EDT
Astronomical Twilight 4:36 AM EDT 10:26 PM EDT
Moon 3:40 AM EDT 6:09 PM EDT
Length of Visible Light 15h 17m
Length of Day
14h 18m
Tomorrow will be 1m 32s shorter.
Waning Crescent, 10% of the Moon is Illuminated
Today
Waning Crescent
Jul 26
New
Aug 3
First Quarter
Aug 10
Full
Aug 17
Last Quarter

Today's Extremes

State Highs State Lows

Community

WunderPhotos

Upload Photos

1,736,594 photos uploaded!

Nearby

Snow Depth

Station Depth Elevation
No new snow has been reported.

Earthquake Activity

City Distance Mag. Time & Date
No recent earthquake activity has been reported nearby.
Minimum magnitude displayed is 2.5.

Coastal Water Temperatures

Place Temperature
No Stations Reporting

Nearby Weather Stations

Station Location Temp. Heat Index Dew Point Humidity Wind Precip. Elev Updated Type
Parkview Heights, Bluefield, VA 74.6 °F 74 °F 69 °F 84% SSW  at  3.0 mph 0.00 in / hr 2402 ft 9:40 AM EDT Rapid Fire
Mullens, WV 72.0 °F 71 °F 67 °F 85% SE  at  0.7 mph 0.00 in / hr 1585 ft 9:40 AM EDT Normal
South Bluefield, Bluefield, WV 72.8 °F 73 °F 66 °F 79% SSW  at  0.0 mph 0.00 in / hr 2700 ft 9:40 AM EDT Rapid Fire
Oxley Hollow Road, Princeton, WV 75.8 °F 77 °F 69 °F 79% WNW  at  1.0 mph 0.01 in / hr 2411 ft 9:38 AM EDT Normal
Flat Top Lake, Ghent, WV 72.0 °F 70 °F 68 °F 87% SW  at  1.7 mph - / hr 2969 ft 9:28 AM EDT Normal
Fairdale, Lester, WV 73.9 °F 76 °F 61 °F 65% SSE  at  0.0 mph 0.00 in / hr 1938 ft 9:40 AM EDT Rapid Fire

Show More Stations Show Fewer Stations